Aviation Digital Data Service (ADDS)

Output produced by TAFs form (0806 UTC 02 July 2015)
found at http://aviationweather.gov/adds/tafs/
 
KSAF 020537Z 0206/0306 08011KT P6SM VCSH BKN090 
     TEMPO 0206/0208 VRB15G30KT SHRA BKN070 
     FM020800 02007KT P6SM BKN090 
     FM021900 VRB06KT P6SM FEW090 
     FM022300 06009KT P6SM VCTS SCT090CB SCT150 
     FM030100 12012KT P6SM VCSH BKN080